Time;durP1;ratioP1;P1;durP2;ratioP2;P2;SDS_P1;SDS_P2;PMS_P1;PMS_P2;Temp;Humidity;BMP_temperature;BMP_pressure;BME280_temperature;BME280_humidity;BME280_pressure;Samples;Min_cycle;Max_cycle;Signal;HPM_P1;HPM_P2
2022/06/09 00:01:44;;;;;;;6.03;2.70;;;14.50;99.90;;;;;;4993706;28;20180;-56
2022/06/09 00:04:21;;;;;;;9.85;2.45;;;14.50;99.90;;;;;;4992518;28;20613;-56
2022/06/09 00:06:48;;;;;;;6.05;2.35;;;14.50;99.90;;;;;;4993164;28;20255;-56
2022/06/09 00:09:15;;;;;;;8.10;2.35;;;14.50;99.90;;;;;;4993360;28;20171;-56
2022/06/09 00:11:45;;;;;;;8.27;2.40;;;14.40;99.90;;;;;;4993214;28;20168;-56
2022/06/09 00:14:10;;;;;;;4.43;1.70;;;14.40;99.90;;;;;;4993413;28;20212;-56
2022/06/09 00:16:36;;;;;;;9.20;1.90;;;14.40;99.90;;;;;;4993237;28;20176;-56
2022/06/09 00:19:05;;;;;;;6.13;1.90;;;14.30;99.90;;;;;;4993310;28;20511;-56
2022/06/09 00:21:34;;;;;;;9.05;2.47;;;14.30;99.90;;;;;;4993402;28;20179;-56
2022/06/09 00:23:59;;;;;;;7.43;2.55;;;14.40;99.90;;;;;;4992994;28;20704;-56
2022/06/09 00:26:26;;;;;;;8.23;2.55;;;14.30;99.90;;;;;;4993063;28;20269;-56
2022/06/09 00:28:51;;;;;;;8.55;1.95;;;14.30;99.90;;;;;;4993137;28;20688;-56
2022/06/09 00:31:17;;;;;;;11.30;2.25;;;14.20;99.90;;;;;;4993221;28;20168;-57
2022/06/09 00:33:43;;;;;;;9.75;2.10;;;14.30;99.90;;;;;;4993092;28;20211;-56
2022/06/09 00:36:08;;;;;;;10.45;3.17;;;14.20;99.90;;;;;;4993141;28;20180;-56
2022/06/09 00:38:34;;;;;;;6.85;2.28;;;14.20;99.90;;;;;;4992843;28;20163;-56
2022/06/09 00:41:00;;;;;;;10.15;2.63;;;14.20;99.90;;;;;;4993034;28;20176;-56
2022/06/09 00:43:32;;;;;;;6.80;2.28;;;14.20;99.90;;;;;;4992988;28;20173;-56
2022/06/09 00:46:10;;;;;;;8.18;2.05;;;14.30;99.90;;;;;;4992983;28;20266;-56
2022/06/09 00:48:55;;;;;;;9.55;2.25;;;14.10;99.90;;;;;;4992528;28;20586;-56
2022/06/09 00:51:41;;;;;;;7.32;2.47;;;14.10;99.90;;;;;;4992722;28;20260;-55
2022/06/09 00:54:16;;;;;;;8.85;2.40;;;14.10;99.90;;;;;;4992625;28;20287;-55
2022/06/09 00:56:55;;;;;;;9.20;2.50;;;14.00;99.90;;;;;;4992561;28;20219;-55
2022/06/09 00:59:26;;;;;;;10.13;2.90;;;14.10;99.90;;;;;;4992832;28;20176;-55
2022/06/09 01:01:57;;;;;;;7.32;1.90;;;14.00;99.90;;;;;;4992893;28;20263;-55
2022/06/09 01:04:25;;;;;;;8.23;2.35;;;14.00;99.90;;;;;;4992571;28;20578;-55
2022/06/09 01:06:56;;;;;;;8.68;2.35;;;14.00;99.90;;;;;;4992533;28;20176;-55
2022/06/09 01:09:24;;;;;;;10.20;2.50;;;14.00;99.90;;;;;;4992413;28;20191;-55
2022/06/09 01:11:52;;;;;;;9.23;2.10;;;14.00;99.90;;;;;;4992824;28;20197;-55
2022/06/09 01:14:23;;;;;;;8.60;2.40;;;14.00;99.90;;;;;;4993860;28;20557;-55
2022/06/09 01:17:10;;;;;;;11.45;2.53;;;14.10;99.90;;;;;;4996824;28;20530;-55
2022/06/09 01:19:54;;;;;;;6.30;2.22;;;14.10;99.90;;;;;;4996605;28;20600;-55
2022/06/09 01:22:42;;;;;;;9.15;2.53;;;14.10;99.90;;;;;;4996508;28;20260;-55
2022/06/09 01:25:11;;;;;;;10.23;2.42;;;14.10;99.90;;;;;;4996585;28;20184;-56
2022/06/09 01:27:56;;;;;;;10.75;2.80;;;14.10;99.90;;;;;;4996385;28;20251;-55
2022/06/09 01:30:41;;;;;;;10.35;2.55;;;14.10;99.90;;;;;;4996229;28;20170;-55
2022/06/09 01:33:07;;;;;;;18.30;3.60;;;14.10;99.90;;;;;;4996302;28;20663;-55
2022/06/09 01:35:43;;;;;;;13.77;3.25;;;14.10;99.90;;;;;;4996107;28;20208;-55
2022/06/09 01:38:10;;;;;;;7.15;2.75;;;14.10;99.90;;;;;;4996267;28;20169;-55
2022/06/09 01:40:36;;;;;;;10.05;2.40;;;14.20;99.90;;;;;;4996125;28;20706;-55
2022/06/09 01:43:04;;;;;;;9.00;2.67;;;14.10;99.90;;;;;;4995917;28;20566;-54
2022/06/09 01:45:50;;;;;;;10.93;3.13;;;14.10;99.90;;;;;;4996206;28;20180;-54
2022/06/09 01:48:18;;;;;;;8.13;2.63;;;14.10;99.90;;;;;;4996199;28;20275;-55
2022/06/09 01:50:55;;;;;;;14.80;3.13;;;12.90;99.90;;;;;;4996086;28;20184;-55
2022/06/09 01:53:38;;;;;;;14.77;3.08;;;14.00;99.90;;;;;;4996057;28;20591;-55
2022/06/09 01:56:15;;;;;;;11.27;2.88;;;14.00;99.90;;;;;;4995837;28;20169;-54
2022/06/09 01:59:08;;;;;;;12.77;3.15;;;14.00;99.90;;;;;;4995686;28;20169;-54
2022/06/09 02:01:39;;;;;;;9.70;2.67;;;14.00;99.90;;;;;;4987720;28;20244;-54
2022/06/09 02:04:10;;;;;;;17.80;4.10;;;14.00;99.90;;;;;;4995930;28;20165;-54
2022/06/09 02:06:37;;;;;;;14.18;3.75;;;14.00;99.90;;;;;;4995529;28;20188;-54
2022/06/09 02:09:04;;;;;;;11.60;3.80;;;14.00;99.90;;;;;;4995839;28;20192;-55
2022/06/09 02:11:30;;;;;;;20.08;3.25;;;14.00;99.90;;;;;;4995442;28;20263;-54
2022/06/09 02:13:57;;;;;;;9.95;3.00;;;14.00;99.90;;;;;;4995277;28;20700;-54
2022/06/09 02:16:24;;;;;;;5.65;2.75;;;14.00;99.90;;;;;;4995596;28;20188;-55
2022/06/09 02:18:55;;;;;;;10.80;3.10;;;14.00;99.90;;;;;;4995316;28;20165;-54
2022/06/09 02:21:23;;;;;;;13.32;3.20;;;14.00;99.90;;;;;;4995197;28;20215;-54
2022/06/09 02:23:49;;;;;;;16.30;3.92;;;14.00;99.90;;;;;;4995525;28;20168;-54
2022/06/09 02:26:16;;;;;;;8.80;3.03;;;14.00;99.90;;;;;;4994392;28;20221;-54
2022/06/09 02:28:42;;;;;;;13.27;3.20;;;13.90;99.90;;;;;;4995289;28;20165;-54
2022/06/09 02:31:08;;;;;;;10.35;2.65;;;13.90;99.90;;;;;;4995097;28;20165;-54
2022/06/09 02:33:33;;;;;;;12.35;2.85;;;13.90;99.90;;;;;;4995043;28;20316;-55
2022/06/09 02:35:59;;;;;;;9.15;4.15;;;13.90;99.90;;;;;;4995069;28;20336;-55
2022/06/09 02:38:25;;;;;;;12.65;4.03;;;14.00;99.90;;;;;;4995032;28;20177;-56
2022/06/09 02:40:52;;;;;;;12.00;3.53;;;14.00;99.90;;;;;;4995214;28;20168;-55
2022/06/09 02:43:17;;;;;;;8.02;3.50;;;14.00;99.90;;;;;;4995151;28;20640;-55
2022/06/09 02:45:43;;;;;;;12.13;4.00;;;14.00;99.90;;;;;;4994949;28;20176;-55
2022/06/09 02:48:09;;;;;;;13.77;3.92;;;13.90;99.90;;;;;;4994744;28;20304;-55
2022/06/09 02:50:35;;;;;;;7.95;3.75;;;14.00;99.90;;;;;;4994777;28;20608;-55
2022/06/09 02:53:01;;;;;;;10.55;3.35;;;14.00;99.90;;;;;;4994797;28;20537;-56
2022/06/09 02:55:28;;;;;;;9.77;3.78;;;14.00;99.90;;;;;;4994763;28;20208;-56
2022/06/09 02:57:53;;;;;;;14.07;4.13;;;14.00;99.90;;;;;;4994774;28;20227;-56
2022/06/09 03:00:19;;;;;;;12.43;3.58;;;14.00;99.90;;;;;;4994549;28;20177;-56
2022/06/09 03:02:57;;;;;;;16.58;4.50;;;14.00;99.90;;;;;;4994902;28;20204;-56
2022/06/09 03:05:23;;;;;;;12.57;4.88;;;14.00;99.90;;;;;;4994811;28;20514;-56
2022/06/09 03:07:49;;;;;;;11.27;4.40;;;14.00;99.90;;;;;;4994487;28;20583;-56
2022/06/09 03:10:15;;;;;;;12.45;4.32;;;14.00;99.90;;;;;;4994780;28;20160;-56
2022/06/09 03:12:42;;;;;;;12.07;4.32;;;14.00;99.90;;;;;;4994345;28;20183;-56
2022/06/09 03:15:10;;;;;;;12.70;4.50;;;14.00;99.90;;;;;;4994337;28;20204;-56
2022/06/09 03:17:36;;;;;;;20.73;4.43;;;14.00;99.90;;;;;;4994492;28;20256;-56
2022/06/09 03:20:04;;;;;;;13.57;4.55;;;14.00;99.90;;;;;;4994105;28;20256;-56
2022/06/09 03:22:30;;;;;;;12.75;4.30;;;14.00;99.90;;;;;;4994511;28;20547;-56
2022/06/09 03:24:56;;;;;;;12.00;4.22;;;13.90;99.90;;;;;;4994123;28;20239;-56
2022/06/09 03:27:21;;;;;;;21.38;5.38;;;14.00;99.90;;;;;;4994164;28;20634;-56
2022/06/09 03:29:47;;;;;;;11.20;3.85;;;14.00;99.90;;;;;;4994423;28;20181;-56
2022/06/09 03:32:13;;;;;;;13.05;3.97;;;14.00;99.90;;;;;;4993977;28;20188;-55
2022/06/09 03:34:38;;;;;;;14.43;4.72;;;14.00;99.90;;;;;;4993956;28;20696;-56
2022/06/09 03:37:04;;;;;;;20.23;6.18;;;14.00;99.90;;;;;;4993643;28;20526;-56
2022/06/09 03:39:30;;;;;;;19.13;4.55;;;14.00;99.90;;;;;;4993900;28;20177;-56
2022/06/09 03:41:55;;;;;;;15.68;4.43;;;14.10;99.90;;;;;;4993779;28;20750;-56
2022/06/09 03:44:21;;;;;;;17.05;4.65;;;14.10;99.90;;;;;;4993755;28;20638;-55
2022/06/09 03:46:46;;;;;;;11.00;4.03;;;14.10;99.90;;;;;;4994062;28;20535;-56
2022/06/09 03:49:15;;;;;;;13.80;4.28;;;14.00;99.90;;;;;;4993412;28;20243;-55
2022/06/09 03:51:41;;;;;;;16.45;4.90;;;14.00;99.90;;;;;;4993642;28;20176;-56
2022/06/09 03:54:07;;;;;;;15.65;4.38;;;14.00;99.90;;;;;;4993533;28;20617;-56
2022/06/09 03:56:33;;;;;;;20.33;4.60;;;14.10;99.90;;;;;;4993550;28;20169;-55
2022/06/09 03:58:59;;;;;;;14.70;5.22;;;14.10;99.90;;;;;;4993477;28;20173;-56
2022/06/09 04:01:24;;;;;;;15.68;4.95;;;14.10;99.90;;;;;;4993532;28;20169;-55
2022/06/09 04:03:50;;;;;;;15.15;5.00;;;14.10;99.90;;;;;;4993477;28;20165;-56
2022/06/09 04:06:22;;;;;;;12.82;4.25;;;14.10;99.90;;;;;;4993719;28;20222;-54
2022/06/09 04:08:48;;;;;;;16.20;4.63;;;14.10;99.90;;;;;;4993576;28;20173;-54
2022/06/09 04:11:16;;;;;;;15.55;4.45;;;14.10;99.90;;;;;;4993543;28;20646;-54
2022/06/09 04:13:42;;;;;;;12.25;5.10;;;14.10;99.90;;;;;;4993191;28;20204;-54
2022/06/09 04:16:35;;;;;;;14.27;4.97;;;14.10;99.90;;;;;;4993565;28;20524;-54
2022/06/09 04:19:04;;;;;;;19.70;5.55;;;14.20;99.90;;;;;;4993296;28;20530;-55
2022/06/09 04:21:31;;;;;;;15.10;5.15;;;14.20;99.90;;;;;;4993086;28;20184;-54
2022/06/09 04:23:57;;;;;;;19.52;5.25;;;14.20;99.90;;;;;;4993130;28;20161;-54
2022/06/09 04:26:26;;;;;;;21.38;5.47;;;14.20;99.90;;;;;;4992999;28;20173;-55
2022/06/09 04:28:52;;;;;;;19.95;5.57;;;14.30;99.90;;;;;;4993022;28;20165;-54
2022/06/09 04:31:18;;;;;;;18.15;5.43;;;14.30;99.90;;;;;;4993101;28;20180;-55
2022/06/09 04:33:44;;;;;;;13.55;5.35;;;14.30;99.90;;;;;;4993186;28;20758;-55
2022/06/09 04:36:11;;;;;;;16.17;5.53;;;14.30;99.90;;;;;;4992845;28;20526;-55
2022/06/09 04:38:37;;;;;;;17.25;5.05;;;14.40;99.90;;;;;;4975356;28;20176;-55
2022/06/09 04:41:04;;;;;;;17.08;6.07;;;14.40;99.90;;;;;;4992818;28;20160;-55
2022/06/09 04:43:30;;;;;;;17.63;5.32;;;14.40;99.90;;;;;;4992758;28;20263;-54
2022/06/09 04:45:56;;;;;;;15.48;5.45;;;14.50;99.90;;;;;;4992947;28;20219;-55
2022/06/09 04:48:22;;;;;;;13.00;5.10;;;14.40;99.90;;;;;;4992206;28;20220;-54
2022/06/09 04:50:47;;;;;;;16.67;5.68;;;14.50;99.90;;;;;;4992633;28;20156;-54
2022/06/09 04:53:13;;;;;;;18.63;5.18;;;14.50;99.90;;;;;;4993051;28;20165;-55
2022/06/09 04:55:40;;;;;;;18.52;5.38;;;14.50;99.90;;;;;;4992490;28;20213;-55
2022/06/09 04:58:06;;;;;;;14.68;5.53;;;14.50;99.90;;;;;;4975193;28;20199;-55
2022/06/09 05:00:32;;;;;;;15.90;5.68;;;14.50;99.90;;;;;;4992585;28;20172;-55
2022/06/09 05:02:59;;;;;;;21.55;6.38;;;14.50;99.90;;;;;;4992481;28;20180;-55
2022/06/09 05:05:29;;;;;;;19.02;5.60;;;14.50;99.90;;;;;;4992412;28;20173;-56
2022/06/09 05:07:55;;;;;;;17.15;5.78;;;14.60;99.90;;;;;;4992778;28;20529;-55
2022/06/09 05:10:20;;;;;;;17.10;5.30;;;14.60;99.90;;;;;;4992378;28;20192;-55
2022/06/09 05:12:46;;;;;;;13.40;5.72;;;14.60;99.90;;;;;;4992832;28;20175;-55
2022/06/09 05:15:17;;;;;;;17.35;6.18;;;14.50;99.90;;;;;;4992285;28;20208;-55
2022/06/09 05:17:43;;;;;;;24.08;6.90;;;14.60;99.90;;;;;;4993236;28;20169;-56
2022/06/09 05:20:14;;;;;;;21.08;6.25;;;14.60;99.90;;;;;;4992405;28;20176;-55
2022/06/09 05:22:40;;;;;;;18.45;5.57;;;14.70;99.90;;;;;;4992278;28;20215;-55
2022/06/09 05:25:07;;;;;;;19.30;6.35;;;14.80;99.90;;;;;;4992341;28;20168;-56
2022/06/09 05:27:33;;;;;;;16.92;5.13;;;14.80;99.90;;;;;;4992283;28;20164;-55
2022/06/09 05:30:00;;;;;;;19.27;5.68;;;14.90;99.90;;;;;;4992426;28;20169;-55
2022/06/09 05:32:26;;;;;;;18.48;5.90;;;15.00;99.90;;;;;;4992524;28;20192;-55
2022/06/09 05:34:51;;;;;;;16.52;5.55;;;15.10;99.90;;;;;;4992155;28;20215;-55
2022/06/09 05:37:18;;;;;;;22.00;6.72;;;15.10;99.90;;;;;;4992287;28;20169;-55
2022/06/09 05:45:13;;;;;;;19.77;6.28;;;15.20;99.90;;;;;;4992379;28;20254;-55
2022/06/09 05:47:39;;;;;;;16.92;6.70;;;15.20;99.90;;;;;;4992077;28;20217;-56
2022/06/09 05:50:06;;;;;;;15.13;6.38;;;15.20;99.90;;;;;;4992147;28;20188;-56
2022/06/09 05:52:32;;;;;;;21.02;6.90;;;15.20;99.90;;;;;;4992106;28;20165;-55
2022/06/09 05:54:58;;;;;;;23.38;6.75;;;15.30;99.90;;;;;;4992234;28;20216;-55
2022/06/09 05:57:25;;;;;;;19.83;6.30;;;15.20;99.90;;;;;;4992108;28;20618;-55
2022/06/09 05:59:51;;;;;;;16.17;5.90;;;15.20;99.90;;;;;;4992453;28;20179;-55
2022/06/09 06:02:18;;;;;;;16.42;6.13;;;15.20;99.90;;;;;;4995718;28;20172;-55
2022/06/09 06:04:46;;;;;;;16.98;6.15;;;15.20;99.90;;;;;;4996019;28;20200;-56
2022/06/09 06:07:11;;;;;;;18.67;5.97;;;15.30;99.90;;;;;;4995526;28;20223;-55
2022/06/09 06:09:37;;;;;;;18.20;5.55;;;15.30;99.90;;;;;;4995878;28;20177;-56
2022/06/09 06:12:04;;;;;;;20.17;6.55;;;15.40;99.90;;;;;;4995446;28;20165;-55
2022/06/09 06:14:30;;;;;;;14.90;5.93;;;15.50;99.90;;;;;;4995345;28;20211;-55
2022/06/09 06:16:57;;;;;;;14.13;5.53;;;15.60;99.90;;;;;;4995521;28;20173;-56
2022/06/09 06:19:23;;;;;;;15.95;6.68;;;15.60;99.90;;;;;;4995372;28;20175;-55
2022/06/09 06:21:50;;;;;;;19.20;6.57;;;15.60;99.90;;;;;;4995451;28;20173;-55
2022/06/09 06:24:18;;;;;;;17.98;6.05;;;15.70;99.90;;;;;;4995614;28;20176;-56
2022/06/09 06:26:44;;;;;;;21.20;6.65;;;15.60;99.90;;;;;;4995438;28;20184;-55
2022/06/09 06:29:14;;;;;;;16.33;6.43;;;15.70;99.90;;;;;;4995365;28;20534;-56
2022/06/09 06:31:40;;;;;;;14.05;5.90;;;15.80;99.90;;;;;;4995386;28;20184;-56
2022/06/09 06:34:06;;;;;;;17.92;6.47;;;15.80;99.90;;;;;;4995311;28;20204;-55
2022/06/09 06:36:31;;;;;;;14.05;5.90;;;15.70;99.90;;;;;;4994588;28;20623;-55
2022/06/09 06:38:57;;;;;;;15.20;5.90;;;15.80;99.90;;;;;;4995121;28;20263;-56
2022/06/09 06:41:23;;;;;;;14.70;6.57;;;15.80;99.90;;;;;;4995070;28;20191;-55
2022/06/09 06:43:49;;;;;;;14.40;7.00;;;15.80;99.90;;;;;;4994539;28;20177;-56
2022/06/09 06:46:16;;;;;;;13.65;5.57;;;15.80;99.90;;;;;;4995160;28;20541;-56
2022/06/09 06:48:42;;;;;;;15.55;6.13;;;15.70;99.90;;;;;;4994924;28;20629;-55
2022/06/09 06:51:08;;;;;;;12.15;6.30;;;15.80;99.90;;;;;;4995037;28;20172;-56
2022/06/09 06:53:35;;;;;;;11.85;6.40;;;15.80;99.90;;;;;;4977214;28;20195;-56
2022/06/09 06:56:02;;;;;;;16.45;6.20;;;15.80;99.90;;;;;;4994816;28;20169;-55
2022/06/09 06:58:28;;;;;;;18.88;6.30;;;15.80;99.90;;;;;;4994909;28;20175;-56
2022/06/09 07:00:54;;;;;;;11.93;5.55;;;15.90;99.90;;;;;;4994516;28;20172;-55
2022/06/09 07:03:20;;;;;;;11.98;6.15;;;15.70;99.90;;;;;;4994390;28;20231;-56
2022/06/09 07:05:45;;;;;;;17.73;6.65;;;15.90;99.90;;;;;;4995108;28;20169;-56
2022/06/09 07:08:15;;;;;;;11.45;6.00;;;15.90;99.90;;;;;;4994823;28;20180;-55
2022/06/09 07:10:42;;;;;;;16.92;6.78;;;15.80;99.90;;;;;;4994310;28;20591;-56
2022/06/09 07:13:08;;;;;;;14.68;6.90;;;15.70;99.90;;;;;;4993850;28;20642;-56
2022/06/09 07:15:34;;;;;;;16.77;6.70;;;15.70;99.90;;;;;;4994283;28;20215;-55
2022/06/09 07:17:59;;;;;;;24.55;8.30;;;15.70;99.90;;;;;;4994630;28;20172;-54
2022/06/09 07:20:25;;;;;;;12.68;6.93;;;15.80;99.90;;;;;;4994120;28;20177;-55
2022/06/09 07:22:52;;;;;;;13.20;6.93;;;15.80;99.90;;;;;;4994506;28;20165;-55
2022/06/09 07:25:20;;;;;;;18.13;7.95;;;15.70;99.90;;;;;;4994181;28;20223;-55
2022/06/09 07:27:47;;;;;;;16.50;8.18;;;15.90;99.90;;;;;;4994724;28;20169;-55
2022/06/09 07:30:13;;;;;;;15.40;7.65;;;16.00;99.90;;;;;;4994408;28;20165;-54
2022/06/09 07:32:40;;;;;;;16.80;7.38;;;16.00;99.90;;;;;;4994107;28;20165;-55
2022/06/09 07:35:07;;;;;;;16.88;8.75;;;16.10;99.90;;;;;;4994129;28;20275;-54
2022/06/09 07:37:33;;;;;;;17.23;7.80;;;16.20;99.90;;;;;;4993946;28;20255;-55
2022/06/09 07:39:58;;;;;;;18.42;7.85;;;16.10;99.90;;;;;;4993811;28;20272;-55
2022/06/09 07:42:26;;;;;;;25.75;7.35;;;16.10;99.90;;;;;;4993857;28;20165;-55
2022/06/09 07:44:52;;;;;;;12.75;6.28;;;16.10;99.90;;;;;;4993788;28;20512;-54
2022/06/09 07:47:18;;;;;;;18.63;6.75;;;16.10;99.90;;;;;;4993592;28;20674;-55
2022/06/09 07:49:44;;;;;;;13.75;7.30;;;16.10;99.90;;;;;;4994042;28;20179;-55
2022/06/09 07:52:10;;;;;;;12.60;7.40;;;16.20;99.90;;;;;;4993700;28;20630;-55
2022/06/09 07:54:36;;;;;;;15.48;7.80;;;16.30;99.90;;;;;;4993433;28;20673;-56
2022/06/09 07:57:02;;;;;;;16.13;7.80;;;16.20;99.90;;;;;;4993532;28;20177;-55
2022/06/09 07:59:28;;;;;;;14.52;7.13;;;16.30;99.90;;;;;;4993453;28;20512;-55
2022/06/09 08:01:53;;;;;;;13.43;6.93;;;16.30;99.90;;;;;;4993439;28;20172;-55
2022/06/09 08:04:19;;;;;;;15.18;7.28;;;16.30;99.90;;;;;;4993328;28;20227;-54
2022/06/09 08:06:45;;;;;;;20.63;7.50;;;16.20;99.90;;;;;;4993732;28;20235;-55
2022/06/09 08:09:12;;;;;;;13.60;6.75;;;16.20;99.90;;;;;;4976007;28;20173;-55
2022/06/09 08:11:38;;;;;;;17.30;6.88;;;16.30;99.90;;;;;;4993550;28;20177;-55
2022/06/09 08:14:07;;;;;;;18.30;6.82;;;16.30;99.90;;;;;;4993149;28;20228;-55
2022/06/09 08:16:34;;;;;;;12.57;7.03;;;16.30;99.90;;;;;;4993513;28;20176;-55
2022/06/09 08:19:00;;;;;;;11.68;6.50;;;16.30;99.90;;;;;;4993119;28;20169;-55
2022/06/09 08:21:26;;;;;;;16.60;7.63;;;16.40;99.90;;;;;;4993386;28;20169;-55
2022/06/09 08:23:52;;;;;;;12.93;6.75;;;16.60;99.90;;;;;;4992595;28;20176;-55
2022/06/09 08:26:18;;;;;;;11.10;5.75;;;16.70;99.90;;;;;;4992968;28;20546;-54
2022/06/09 08:28:44;;;;;;;14.60;6.32;;;16.80;99.90;;;;;;4993335;28;20244;-55
2022/06/09 08:31:10;;;;;;;20.15;7.78;;;16.80;99.90;;;;;;4993138;28;20173;-55
2022/06/09 08:33:38;;;;;;;12.07;6.07;;;16.80;99.90;;;;;;4992975;28;20322;-56
2022/06/09 08:36:05;;;;;;;13.80;7.25;;;16.80;99.90;;;;;;4992816;28;20172;-55
2022/06/09 08:38:31;;;;;;;11.85;6.20;;;17.00;99.90;;;;;;4992753;28;20179;-56
2022/06/09 08:41:17;;;;;;;11.63;6.43;;;17.10;99.90;;;;;;4992782;28;20164;-55
2022/06/09 08:43:43;;;;;;;16.08;6.18;;;17.20;99.90;;;;;;4993392;28;20179;-55
2022/06/09 08:46:30;;;;;;;14.75;5.70;;;17.60;99.90;;;;;;4992790;28;20165;-55
2022/06/09 08:49:00;;;;;;;11.90;5.00;;;17.90;99.90;;;;;;4992595;28;20222;-55
2022/06/09 08:51:34;;;;;;;16.40;5.78;;;18.00;99.90;;;;;;4992754;28;20172;-55
2022/06/09 08:54:17;;;;;;;12.55;5.32;;;18.20;99.90;;;;;;4992551;28;20215;-54
2022/06/09 08:56:45;;;;;;;14.73;5.47;;;18.00;99.90;;;;;;4992993;28;20177;-55
2022/06/09 08:59:15;;;;;;;10.32;5.00;;;18.20;99.90;;;;;;4992948;28;20168;-56
2022/06/09 09:01:47;;;;;;;12.82;4.93;;;18.30;99.90;;;;;;4992894;28;20177;-55
2022/06/09 09:04:29;;;;;;;12.13;4.32;;;18.10;99.90;;;;;;4993118;28;20176;-55
2022/06/09 09:07:26;;;;;;;12.75;4.90;;;18.00;99.90;;;;;;4992580;28;20380;-55
2022/06/09 09:10:28;;;;;;;13.73;5.10;;;17.90;99.90;;;;;;4992490;28;20172;-55
2022/06/09 09:13:31;;;;;;;11.93;4.60;;;18.00;99.90;;;;;;4992320;28;20697;-56
2022/06/09 09:16:01;;;;;;;9.30;5.07;;;17.90;99.90;;;;;;4992192;28;20184;-55
2022/06/09 09:18:35;;;;;;;13.07;4.90;;;18.00;99.90;;;;;;4992436;28;20165;-55
2022/06/09 09:21:19;;;;;;;10.27;4.32;;;18.50;99.90;;;;;;4992397;28;20255;-55
2022/06/09 09:24:10;;;;;;;10.02;4.25;;;18.70;99.90;;;;;;4992654;28;20179;-55
2022/06/09 09:27:19;;;;;;;11.25;4.95;;;18.60;99.90;;;;;;4992253;28;20168;-56
2022/06/09 09:30:10;;;;;;;10.80;5.10;;;18.80;99.90;;;;;;4992450;28;20534;-54
2022/06/09 09:32:40;;;;;;;7.53;4.32;;;19.10;99.90;;;;;;4974911;28;20196;-55
2022/06/09 09:35:11;;;;;;;8.45;4.38;;;19.10;99.90;;;;;;4993016;28;20204;-56
2022/06/09 09:37:45;;;;;;;9.15;4.18;;;19.10;99.90;;;;;;4996029;28;20188;-56
2022/06/09 09:40:23;;;;;;;10.40;4.32;;;19.50;99.90;;;;;;4996805;28;20177;-56
2022/06/09 09:42:51;;;;;;;9.65;3.83;;;19.60;99.90;;;;;;4996433;28;20174;-55
2022/06/09 09:45:29;;;;;;;9.23;4.20;;;19.50;99.90;;;;;;4995371;28;20682;-56
2022/06/09 09:47:59;;;;;;;5.90;3.65;;;19.80;99.90;;;;;;4995881;28;20216;-56
2022/06/09 09:50:30;;;;;;;11.95;5.07;;;20.00;99.90;;;;;;4995671;28;20238;-56
2022/06/09 09:53:04;;;;;;;9.48;4.57;;;20.10;99.90;;;;;;4995885;28;20219;-56
2022/06/09 09:55:39;;;;;;;5.28;3.85;;;20.10;99.90;;;;;;4995811;28;20720;-56
2022/06/09 09:58:17;;;;;;;7.93;4.28;;;20.10;99.90;;;;;;4995942;28;20173;-56
2022/06/09 10:00:43;;;;;;;9.45;4.43;;;19.90;99.90;;;;;;4996267;28;20180;-56
2022/06/09 10:09:09;;;;;;;9.48;3.53;;;20.10;99.90;;;;;;4995756;28;20379;-55
2022/06/09 10:11:55;;;;;;;9.50;3.90;;;20.10;99.90;;;;;;4995555;28;20172;-55
2022/06/09 10:14:26;;;;;;;8.13;4.00;;;20.30;99.90;;;;;;4995363;28;20204;-55
2022/06/09 10:16:54;;;;;;;9.25;3.60;;;20.50;99.90;;;;;;4995510;28;20204;-55
2022/06/09 10:19:24;;;;;;;9.25;3.38;;;20.50;99.90;;;;;;4995475;28;20165;-55
2022/06/09 10:22:00;;;;;;;5.13;2.80;;;20.50;99.90;;;;;;4977893;28;20180;-55
2022/06/09 10:24:54;;;;;;;6.25;2.83;;;20.50;99.90;;;;;;4995374;28;20204;-55
2022/06/09 10:27:23;;;;;;;8.88;3.50;;;20.40;99.90;;;;;;4969987;28;20642;-55
2022/06/09 10:30:11;;;;;;;12.43;3.58;;;20.50;99.90;;;;;;4994707;28;20173;-55
2022/06/09 10:32:53;;;;;;;13.10;3.55;;;20.80;99.90;;;;;;4994880;28;20173;-55
2022/06/09 10:35:49;;;;;;;8.30;2.88;;;20.70;99.90;;;;;;4995050;28;20211;-55
2022/06/09 10:38:25;;;;;;;3.75;2.40;;;20.90;99.90;;;;;;4994933;28;20507;-55
2022/06/09 10:40:56;;;;;;;13.02;3.10;;;21.00;99.90;;;;;;4994925;28;20180;-55
2022/06/09 10:43:42;;;;;;;9.18;3.25;;;21.10;99.90;;;;;;4995142;28;20212;-55
2022/06/09 10:46:29;;;;;;;9.95;3.10;;;21.00;99.90;;;;;;4994610;28;20268;-55
2022/06/09 10:55:15;;;;;;;9.70;3.17;;;20.90;99.90;;;;;;4994879;28;20224;-55
2022/06/09 10:57:58;;;;;;;12.15;3.53;;;20.80;99.90;;;;;;4995204;28;20169;-55
2022/06/09 11:00:28;;;;;;;8.10;3.20;;;21.00;99.90;;;;;;4994984;28;20653;-55
2022/06/09 11:02:56;;;;;;;8.05;2.90;;;21.20;99.90;;;;;;4994608;28;20165;-55
2022/06/09 11:05:35;;;;;;;9.57;3.58;;;21.10;99.90;;;;;;4994562;28;20169;-55
2022/06/09 11:08:24;;;;;;;9.57;3.10;;;21.00;99.90;;;;;;4994319;28;20169;-55
2022/06/09 11:10:59;;;;;;;8.63;3.50;;;21.20;99.90;;;;;;4994385;28;20204;-55
2022/06/09 11:13:45;;;;;;;8.70;3.35;;;21.40;99.90;;;;;;4994451;28;20164;-54
2022/06/09 11:16:53;;;;;;;9.75;3.30;;;21.30;99.90;;;;;;4994433;28;20185;-55
2022/06/09 11:19:49;;;;;;;8.50;3.55;;;21.50;99.90;;;;;;4994058;28;20169;-56
2022/06/09 11:22:40;;;;;;;10.77;3.60;;;21.70;99.90;;;;;;4994340;28;20165;-55
2022/06/09 11:25:30;;;;;;;8.30;2.80;;;21.60;99.90;;;;;;4994153;28;20173;-55
2022/06/09 11:28:14;;;;;;;8.38;3.15;;;21.70;99.90;;;;;;4994375;28;20208;-54
2022/06/09 11:30:43;;;;;;;10.50;3.13;;;21.80;99.90;;;;;;4994265;28;20164;-54
2022/06/09 11:33:45;;;;;;;15.65;4.18;;;22.20;99.90;;;;;;4994148;28;20173;-55
2022/06/09 11:36:28;;;;;;;8.38;2.67;;;22.00;99.90;;;;;;4994102;28;20185;-56
2022/06/09 11:39:20;;;;;;;9.77;3.67;;;21.80;99.90;;;;;;4994170;28;20173;-55
2022/06/09 11:41:57;;;;;;;7.57;2.78;;;22.10;99.90;;;;;;4993923;28;20157;-55
2022/06/09 11:44:39;;;;;;;12.43;3.30;;;21.70;99.90;;;;;;4976371;28;20176;-55
2022/06/09 11:47:16;;;;;;;8.70;3.35;;;21.90;99.90;;;;;;4993635;28;20165;-55
2022/06/09 11:49:54;;;;;;;10.75;3.60;;;21.90;99.90;;;;;;4994136;28;20184;-55
2022/06/09 11:52:24;;;;;;;9.18;2.70;;;21.80;99.90;;;;;;4993414;28;20226;-55
2022/06/09 11:54:50;;;;;;;7.28;3.00;;;22.10;99.90;;;;;;4992852;28;20235;-55
2022/06/09 11:57:27;;;;;;;12.32;3.60;;;22.30;99.90;;;;;;4993665;28;20160;-55
2022/06/09 12:00:12;;;;;;;9.63;3.03;;;22.10;99.90;;;;;;4993531;28;20195;-55
2022/06/09 12:03:08;;;;;;;7.03;3.10;;;21.90;99.90;;;;;;4993294;28;20658;-55
2022/06/09 12:05:45;;;;;;;5.97;2.80;;;21.60;99.90;;;;;;4993338;28;20200;-56
2022/06/09 12:08:32;;;;;;;5.70;2.78;;;21.50;99.90;;;;;;4993549;28;20165;-56
2022/06/09 12:11:06;;;;;;;10.25;2.97;;;21.00;99.90;;;;;;4993158;28;20227;-56
2022/06/09 12:13:57;;;;;;;10.38;3.20;;;20.70;99.90;;;;;;4993023;28;20194;-56
2022/06/09 12:16:29;;;;;;;9.88;3.78;;;20.70;99.90;;;;;;4992970;28;20545;-56
2022/06/09 12:19:13;;;;;;;5.43;2.90;;;20.50;99.90;;;;;;4992998;28;20593;-56
2022/06/09 12:21:44;;;;;;;7.18;2.88;;;20.60;99.90;;;;;;4993312;28;20219;-55
2022/06/09 12:24:22;;;;;;;9.20;3.13;;;20.80;99.90;;;;;;4993662;28;20192;-55
2022/06/09 12:27:10;;;;;;;8.10;3.20;;;20.70;99.90;;;;;;4993341;28;20200;-55
2022/06/09 12:29:43;;;;;;;7.68;3.00;;;20.80;99.90;;;;;;4946144;28;20643;-56
2022/06/09 12:32:09;;;;;;;7.88;2.65;;;20.80;99.90;;;;;;4993541;28;20176;-56
2022/06/09 12:34:45;;;;;;;5.05;2.33;;;20.90;99.90;;;;;;4992912;28;20736;-56
2022/06/09 12:37:26;;;;;;;6.40;2.67;;;20.70;99.90;;;;;;4993054;28;20548;-55
2022/06/09 12:39:59;;;;;;;7.63;2.45;;;21.00;99.90;;;;;;4992912;28;20168;-56
2022/06/09 12:42:41;;;;;;;5.68;2.58;;;20.90;99.90;;;;;;4992889;28;20161;-56
2022/06/09 12:45:19;;;;;;;7.05;2.60;;;20.80;99.90;;;;;;4992838;28;20172;-56
2022/06/09 12:48:12;;;;;;;6.63;1.40;;;20.70;99.90;;;;;;4992615;28;20303;-56
2022/06/09 12:50:52;;;;;;;1.73;1.35;;;19.60;99.90;;;;;;4992866;28;20173;-56
2022/06/09 12:53:32;;;;;;;1.50;1.40;;;19.30;99.90;;;;;;4992635;28;20310;-56
2022/06/09 12:56:04;;;;;;;2.65;1.45;;;18.60;99.90;;;;;;4992518;28;20697;-56
2022/06/09 12:58:37;;;;;;;1.40;1.30;;;18.30;99.90;;;;;;4992737;28;20168;-56
2022/06/09 13:01:05;;;;;;;1.58;1.48;;;18.30;99.90;;;;;;4991902;28;20295;-56
2022/06/09 13:03:35;;;;;;;1.80;1.70;;;18.00;99.90;;;;;;4992164;28;20189;-54
2022/06/09 13:06:31;;;;;;;6.50;1.88;;;17.70;99.90;;;;;;4974650;28;20188;-55
2022/06/09 13:09:13;;;;;;;3.72;1.88;;;17.80;99.90;;;;;;4992288;28;20638;-55
2022/06/09 13:14:29;;;;;;;2.40;1.83;;;17.60;99.90;;;;;;4992071;28;20238;-57
2022/06/09 13:16:58;;;;;;;3.33;1.70;;;17.40;99.90;;;;;;4992203;28;20210;-54
2022/06/09 13:19:27;;;;;;;3.45;2.08;;;17.40;99.90;;;;;;4992160;28;20165;-53
2022/06/09 13:21:53;;;;;;;6.05;1.90;;;17.50;99.90;;;;;;4992019;28;20506;-53
2022/06/09 13:24:28;;;;;;;2.83;1.60;;;17.60;99.90;;;;;;4992044;28;20522;-54